sensor_id;sensor_type;location;lat;lon;timestamp;temperature;humidity
11047;DHT22;5576;50.008;10.596;2023-10-09T00:00:40;12.80;99.90
11047;DHT22;5576;50.008;10.596;2023-10-09T00:03:07;11.00;99.90
11047;DHT22;5576;50.008;10.596;2023-10-09T00:05:34;11.90;99.90
11047;DHT22;5576;50.008;10.596;2023-10-09T00:08:18;12.70;99.90
11047;DHT22;5576;50.008;10.596;2023-10-09T00:10:48;12.70;99.90
11047;DHT22;5576;50.008;10.596;2023-10-09T00:13:19;12.60;99.90
11047;DHT22;5576;50.008;10.596;2023-10-09T00:15:45;12.70;99.90
11047;DHT22;5576;50.008;10.596;2023-10-09T00:18:18;12.80;99.90
11047;DHT22;5576;50.008;10.596;2023-10-09T00:20:54;12.70;99.90
11047;DHT22;5576;50.008;10.596;2023-10-09T00:23:20;12.70;99.90
11047;DHT22;5576;50.008;10.596;2023-10-09T00:25:51;12.60;99.90
11047;DHT22;5576;50.008;10.596;2023-10-09T00:28:43;12.50;99.90
11047;DHT22;5576;50.008;10.596;2023-10-09T00:31:10;12.50;99.90
11047;DHT22;5576;50.008;10.596;2023-10-09T00:33:42;12.60;99.90
11047;DHT22;5576;50.008;10.596;2023-10-09T00:36:09;12.70;99.90
11047;DHT22;5576;50.008;10.596;2023-10-09T00:38:37;12.70;99.90
11047;DHT22;5576;50.008;10.596;2023-10-09T00:41:14;12.80;99.90
11047;DHT22;5576;50.008;10.596;2023-10-09T00:43:46;12.70;99.90
11047;DHT22;5576;50.008;10.596;2023-10-09T00:46:17;12.80;99.90
11047;DHT22;5576;50.008;10.596;2023-10-09T00:48:46;12.80;99.90
11047;DHT22;5576;50.008;10.596;2023-10-09T00:51:14;12.60;99.90
11047;DHT22;5576;50.008;10.596;2023-10-09T00:53:45;12.80;99.90
11047;DHT22;5576;50.008;10.596;2023-10-09T00:56:14;12.80;99.90
11047;DHT22;5576;50.008;10.596;2023-10-09T00:59:00;11.00;99.90
11047;DHT22;5576;50.008;10.596;2023-10-09T01:01:36;12.80;99.90
11047;DHT22;5576;50.008;10.596;2023-10-09T01:04:04;12.80;99.90
11047;DHT22;5576;50.008;10.596;2023-10-09T01:06:33;13.40;99.90
11047;DHT22;5576;50.008;10.596;2023-10-09T01:08:59;12.70;99.90
11047;DHT22;5576;50.008;10.596;2023-10-09T01:11:35;12.60;99.90
11047;DHT22;5576;50.008;10.596;2023-10-09T01:14:12;12.60;99.90
11047;DHT22;5576;50.008;10.596;2023-10-09T01:16:39;12.60;99.90
11047;DHT22;5576;50.008;10.596;2023-10-09T01:19:07;12.60;99.90
11047;DHT22;5576;50.008;10.596;2023-10-09T01:21:39;12.60;99.90
11047;DHT22;5576;50.008;10.596;2023-10-09T01:24:06;10.10;99.90
11047;DHT22;5576;50.008;10.596;2023-10-09T01:26:36;12.10;99.90
11047;DHT22;5576;50.008;10.596;2023-10-09T01:29:06;12.60;99.90
11047;DHT22;5576;50.008;10.596;2023-10-09T01:31:40;12.60;99.90
11047;DHT22;5576;50.008;10.596;2023-10-09T01:34:12;12.50;99.90
11047;DHT22;5576;50.008;10.596;2023-10-09T01:36:39;12.60;99.90
11047;DHT22;5576;50.008;10.596;2023-10-09T01:39:05;12.60;99.90
11047;DHT22;5576;50.008;10.596;2023-10-09T01:41:36;12.50;99.90
11047;DHT22;5576;50.008;10.596;2023-10-09T01:44:11;12.50;99.90
11047;DHT22;5576;50.008;10.596;2023-10-09T01:46:38;8.60;99.90
11047;DHT22;5576;50.008;10.596;2023-10-09T01:49:04;12.40;99.90
11047;DHT22;5576;50.008;10.596;2023-10-09T01:51:42;12.40;99.90
11047;DHT22;5576;50.008;10.596;2023-10-09T01:54:08;12.50;99.90
11047;DHT22;5576;50.008;10.596;2023-10-09T01:56:34;12.40;99.90
11047;DHT22;5576;50.008;10.596;2023-10-09T01:59:04;12.50;99.90
11047;DHT22;5576;50.008;10.596;2023-10-09T02:01:32;12.50;99.90
11047;DHT22;5576;50.008;10.596;2023-10-09T02:03:58;12.40;99.90
11047;DHT22;5576;50.008;10.596;2023-10-09T02:06:31;12.30;99.90
11047;DHT22;5576;50.008;10.596;2023-10-09T02:08:57;12.30;99.90
11047;DHT22;5576;50.008;10.596;2023-10-09T02:11:25;12.40;99.90
11047;DHT22;5576;50.008;10.596;2023-10-09T02:14:03;12.40;99.90
11047;DHT22;5576;50.008;10.596;2023-10-09T02:16:46;12.50;99.90
11047;DHT22;5576;50.008;10.596;2023-10-09T02:19:28;14.00;99.90
11047;DHT22;5576;50.008;10.596;2023-10-09T02:21:56;13.50;99.90
11047;DHT22;5576;50.008;10.596;2023-10-09T02:24:24;12.30;99.90
11047;DHT22;5576;50.008;10.596;2023-10-09T02:27:10;15.70;99.90
11047;DHT22;5576;50.008;10.596;2023-10-09T02:29:36;12.10;99.90
11047;DHT22;5576;50.008;10.596;2023-10-09T02:32:04;12.10;99.90
11047;DHT22;5576;50.008;10.596;2023-10-09T02:34:39;12.10;99.90
11047;DHT22;5576;50.008;10.596;2023-10-09T02:37:05;12.10;99.90
11047;DHT22;5576;50.008;10.596;2023-10-09T02:39:32;8.80;99.90
11047;DHT22;5576;50.008;10.596;2023-10-09T02:42:14;12.10;99.90
11047;DHT22;5576;50.008;10.596;2023-10-09T02:44:41;15.50;99.90
11047;DHT22;5576;50.008;10.596;2023-10-09T02:47:13;12.10;99.90
11047;DHT22;5576;50.008;10.596;2023-10-09T02:49:46;12.00;99.90
11047;DHT22;5576;50.008;10.596;2023-10-09T02:52:14;11.90;99.90
11047;DHT22;5576;50.008;10.596;2023-10-09T02:54:45;11.90;99.90
11047;DHT22;5576;50.008;10.596;2023-10-09T02:57:13;11.80;99.90
11047;DHT22;5576;50.008;10.596;2023-10-09T02:59:49;11.80;99.90
11047;DHT22;5576;50.008;10.596;2023-10-09T03:02:18;11.80;99.90
11047;DHT22;5576;50.008;10.596;2023-10-09T03:04:44;11.70;99.90
11047;DHT22;5576;50.008;10.596;2023-10-09T03:07:10;11.70;99.90
11047;DHT22;5576;50.008;10.596;2023-10-09T03:09:39;8.10;99.90
11047;DHT22;5576;50.008;10.596;2023-10-09T03:12:07;11.60;99.90
11047;DHT22;5576;50.008;10.596;2023-10-09T03:14:37;11.60;99.90
11047;DHT22;5576;50.008;10.596;2023-10-09T03:17:05;11.60;99.90
11047;DHT22;5576;50.008;10.596;2023-10-09T03:19:32;11.50;99.90
11047;DHT22;5576;50.008;10.596;2023-10-09T03:22:06;11.40;99.90
11047;DHT22;5576;50.008;10.596;2023-10-09T03:24:37;11.50;99.90
11047;DHT22;5576;50.008;10.596;2023-10-09T03:27:04;11.50;99.90
11047;DHT22;5576;50.008;10.596;2023-10-09T03:29:30;11.50;99.90
11047;DHT22;5576;50.008;10.596;2023-10-09T03:31:56;11.00;99.90
11047;DHT22;5576;50.008;10.596;2023-10-09T03:34:22;11.60;99.90
11047;DHT22;5576;50.008;10.596;2023-10-09T03:36:49;11.60;99.90
11047;DHT22;5576;50.008;10.596;2023-10-09T03:39:25;11.60;99.90
11047;DHT22;5576;50.008;10.596;2023-10-09T03:42:07;11.60;99.90
11047;DHT22;5576;50.008;10.596;2023-10-09T03:44:38;11.40;99.90
11047;DHT22;5576;50.008;10.596;2023-10-09T03:47:07;11.50;99.90
11047;DHT22;5576;50.008;10.596;2023-10-09T03:49:35;11.40;99.90
11047;DHT22;5576;50.008;10.596;2023-10-09T03:52:05;11.30;99.90
11047;DHT22;5576;50.008;10.596;2023-10-09T03:54:32;12.90;99.90
11047;DHT22;5576;50.008;10.596;2023-10-09T03:57:01;11.30;99.90
11047;DHT22;5576;50.008;10.596;2023-10-09T03:59:27;11.20;99.90
11047;DHT22;5576;50.008;10.596;2023-10-09T04:01:57;11.20;99.90
11047;DHT22;5576;50.008;10.596;2023-10-09T04:04:24;11.20;99.90
11047;DHT22;5576;50.008;10.596;2023-10-09T04:06:51;11.20;99.90
11047;DHT22;5576;50.008;10.596;2023-10-09T04:09:18;11.20;99.90
11047;DHT22;5576;50.008;10.596;2023-10-09T04:11:45;11.20;99.90
11047;DHT22;5576;50.008;10.596;2023-10-09T04:14:12;15.30;99.90
11047;DHT22;5576;50.008;10.596;2023-10-09T04:16:45;11.10;99.90
11047;DHT22;5576;50.008;10.596;2023-10-09T04:19:29;11.10;99.90
11047;DHT22;5576;50.008;10.596;2023-10-09T04:21:55;11.20;99.90
11047;DHT22;5576;50.008;10.596;2023-10-09T04:24:23;11.30;99.90
11047;DHT22;5576;50.008;10.596;2023-10-09T04:26:49;11.30;99.90
11047;DHT22;5576;50.008;10.596;2023-10-09T04:29:23;11.20;99.90
11047;DHT22;5576;50.008;10.596;2023-10-09T04:31:54;11.20;99.90
11047;DHT22;5576;50.008;10.596;2023-10-09T04:34:23;11.20;99.90
11047;DHT22;5576;50.008;10.596;2023-10-09T04:36:55;11.20;99.90
11047;DHT22;5576;50.008;10.596;2023-10-09T04:39:27;11.10;99.90
11047;DHT22;5576;50.008;10.596;2023-10-09T04:41:57;11.10;99.90
11047;DHT22;5576;50.008;10.596;2023-10-09T04:44:43;11.30;99.90
11047;DHT22;5576;50.008;10.596;2023-10-09T04:47:30;11.30;99.90
11047;DHT22;5576;50.008;10.596;2023-10-09T04:50:16;11.40;99.90
11047;DHT22;5576;50.008;10.596;2023-10-09T04:52:44;11.50;99.90
11047;DHT22;5576;50.008;10.596;2023-10-09T04:55:11;11.60;99.90
11047;DHT22;5576;50.008;10.596;2023-10-09T04:57:40;11.60;99.90
11047;DHT22;5576;50.008;10.596;2023-10-09T05:00:17;11.60;99.90
11047;DHT22;5576;50.008;10.596;2023-10-09T05:02:58;7.90;99.90
11047;DHT22;5576;50.008;10.596;2023-10-09T05:05:26;11.60;99.90
11047;DHT22;5576;50.008;10.596;2023-10-09T05:08:10;11.60;99.90
11047;DHT22;5576;50.008;10.596;2023-10-09T05:10:58;11.50;99.90
11047;DHT22;5576;50.008;10.596;2023-10-09T05:13:25;11.50;99.90
11047;DHT22;5576;50.008;10.596;2023-10-09T05:18:52;10.10;99.90
11047;DHT22;5576;50.008;10.596;2023-10-09T05:21:29;11.50;99.90
11047;DHT22;5576;50.008;10.596;2023-10-09T05:23:58;11.50;99.90
11047;DHT22;5576;50.008;10.596;2023-10-09T05:29:21;11.50;99.90
11047;DHT22;5576;50.008;10.596;2023-10-09T05:31:55;9.00;99.90
11047;DHT22;5576;50.008;10.596;2023-10-09T05:34:27;11.60;99.90
11047;DHT22;5576;50.008;10.596;2023-10-09T05:37:03;11.70;99.90
11047;DHT22;5576;50.008;10.596;2023-10-09T05:39:44;11.90;99.90
11047;DHT22;5576;50.008;10.596;2023-10-09T05:42:24;11.80;99.90
11047;DHT22;5576;50.008;10.596;2023-10-09T05:44:54;11.80;99.90
11047;DHT22;5576;50.008;10.596;2023-10-09T05:47:40;11.70;99.90
11047;DHT22;5576;50.008;10.596;2023-10-09T05:50:19;11.80;99.90
11047;DHT22;5576;50.008;10.596;2023-10-09T05:52:50;11.80;99.90
11047;DHT22;5576;50.008;10.596;2023-10-09T05:55:17;11.70;99.90
11047;DHT22;5576;50.008;10.596;2023-10-09T05:57:45;11.70;99.90
11047;DHT22;5576;50.008;10.596;2023-10-09T06:00:31;11.70;99.90
11047;DHT22;5576;50.008;10.596;2023-10-09T06:03:17;11.60;99.90
11047;DHT22;5576;50.008;10.596;2023-10-09T06:05:48;11.60;99.90
11047;DHT22;5576;50.008;10.596;2023-10-09T06:08:23;11.50;99.90
11047;DHT22;5576;50.008;10.596;2023-10-09T06:10:53;11.60;99.90
11047;DHT22;5576;50.008;10.596;2023-10-09T06:13:32;11.70;99.90
11047;DHT22;5576;50.008;10.596;2023-10-09T06:16:11;11.90;99.90
11047;DHT22;5576;50.008;10.596;2023-10-09T06:18:55;11.90;99.90
11047;DHT22;5576;50.008;10.596;2023-10-09T06:21:34;10.90;99.90
11047;DHT22;5576;50.008;10.596;2023-10-09T06:24:09;12.20;99.90
11047;DHT22;5576;50.008;10.596;2023-10-09T06:26:35;12.10;99.90
11047;DHT22;5576;50.008;10.596;2023-10-09T06:29:01;12.30;99.90
11047;DHT22;5576;50.008;10.596;2023-10-09T06:31:46;12.30;99.90
11047;DHT22;5576;50.008;10.596;2023-10-09T06:34:32;12.30;99.90
11047;DHT22;5576;50.008;10.596;2023-10-09T06:36:59;12.20;99.90
11047;DHT22;5576;50.008;10.596;2023-10-09T06:39:34;12.20;99.90
11047;DHT22;5576;50.008;10.596;2023-10-09T06:42:16;12.10;99.90
11047;DHT22;5576;50.008;10.596;2023-10-09T06:45:01;12.20;99.90
11047;DHT22;5576;50.008;10.596;2023-10-09T06:47:29;12.20;99.90
11047;DHT22;5576;50.008;10.596;2023-10-09T06:50:02;12.30;99.90
11047;DHT22;5576;50.008;10.596;2023-10-09T06:52:48;12.40;99.90
11047;DHT22;5576;50.008;10.596;2023-10-09T06:55:41;12.50;99.90
11047;DHT22;5576;50.008;10.596;2023-10-09T06:58:18;12.60;99.90
11047;DHT22;5576;50.008;10.596;2023-10-09T07:00:53;12.60;99.90
11047;DHT22;5576;50.008;10.596;2023-10-09T07:03:20;12.60;99.90
11047;DHT22;5576;50.008;10.596;2023-10-09T07:06:11;12.70;99.90
11047;DHT22;5576;50.008;10.596;2023-10-09T07:08:57;12.70;99.90
11047;DHT22;5576;50.008;10.596;2023-10-09T07:11:45;10.30;99.90
11047;DHT22;5576;50.008;10.596;2023-10-09T07:14:23;13.00;99.90
11047;DHT22;5576;50.008;10.596;2023-10-09T07:17:01;12.90;99.90
11047;DHT22;5576;50.008;10.596;2023-10-09T07:19:28;12.90;99.90
11047;DHT22;5576;50.008;10.596;2023-10-09T07:22:15;12.90;99.90
11047;DHT22;5576;50.008;10.596;2023-10-09T07:24:51;14.70;99.90
11047;DHT22;5576;50.008;10.596;2023-10-09T07:27:37;12.70;99.90
11047;DHT22;5576;50.008;10.596;2023-10-09T07:30:12;16.40;99.90
11047;DHT22;5576;50.008;10.596;2023-10-09T07:33:07;12.70;99.90
11047;DHT22;5576;50.008;10.596;2023-10-09T07:38:11;12.80;99.90
11047;DHT22;5576;50.008;10.596;2023-10-09T07:40:38;12.80;99.90
11047;DHT22;5576;50.008;10.596;2023-10-09T07:43:28;12.80;99.90
11047;DHT22;5576;50.008;10.596;2023-10-09T07:46:02;13.00;99.90
11047;DHT22;5576;50.008;10.596;2023-10-09T07:48:31;13.00;99.90
11047;DHT22;5576;50.008;10.596;2023-10-09T07:51:14;13.00;99.90
11047;DHT22;5576;50.008;10.596;2023-10-09T07:53:40;13.00;99.90
11047;DHT22;5576;50.008;10.596;2023-10-09T07:56:11;13.10;99.90
11047;DHT22;5576;50.008;10.596;2023-10-09T07:58:40;13.10;99.90
11047;DHT22;5576;50.008;10.596;2023-10-09T08:01:14;13.20;99.90
11047;DHT22;5576;50.008;10.596;2023-10-09T08:03:42;13.20;99.90
11047;DHT22;5576;50.008;10.596;2023-10-09T08:06:12;16.60;99.90
11047;DHT22;5576;50.008;10.596;2023-10-09T08:08:58;13.10;99.90
11047;DHT22;5576;50.008;10.596;2023-10-09T08:11:41;12.90;99.90
11047;DHT22;5576;50.008;10.596;2023-10-09T08:14:09;9.70;99.90
11047;DHT22;5576;50.008;10.596;2023-10-09T08:16:55;12.70;99.90
11047;DHT22;5576;50.008;10.596;2023-10-09T08:19:46;12.80;99.90
11047;DHT22;5576;50.008;10.596;2023-10-09T08:22:21;12.80;99.90
11047;DHT22;5576;50.008;10.596;2023-10-09T08:24:49;12.90;99.90
11047;DHT22;5576;50.008;10.596;2023-10-09T08:27:26;12.80;99.90
11047;DHT22;5576;50.008;10.596;2023-10-09T08:30:12;12.80;99.90
11047;DHT22;5576;50.008;10.596;2023-10-09T08:32:54;12.80;99.90
11047;DHT22;5576;50.008;10.596;2023-10-09T08:35:43;13.00;99.90
11047;DHT22;5576;50.008;10.596;2023-10-09T08:38:13;13.00;99.90
11047;DHT22;5576;50.008;10.596;2023-10-09T08:40:41;13.00;99.90
11047;DHT22;5576;50.008;10.596;2023-10-09T08:43:25;13.10;99.90
11047;DHT22;5576;50.008;10.596;2023-10-09T08:45:56;13.10;99.90
11047;DHT22;5576;50.008;10.596;2023-10-09T08:48:27;13.00;99.90
11047;DHT22;5576;50.008;10.596;2023-10-09T08:50:55;13.10;99.90
11047;DHT22;5576;50.008;10.596;2023-10-09T08:53:22;13.20;99.90
11047;DHT22;5576;50.008;10.596;2023-10-09T08:55:49;13.20;99.90
11047;DHT22;5576;50.008;10.596;2023-10-09T08:58:17;13.10;99.90
11047;DHT22;5576;50.008;10.596;2023-10-09T09:00:51;13.10;99.90
11047;DHT22;5576;50.008;10.596;2023-10-09T09:03:19;13.00;99.90
11047;DHT22;5576;50.008;10.596;2023-10-09T09:08:27;13.10;99.90
11047;DHT22;5576;50.008;10.596;2023-10-09T09:16:18;13.10;99.90
11047;DHT22;5576;50.008;10.596;2023-10-09T09:19:01;13.10;99.90
11047;DHT22;5576;50.008;10.596;2023-10-09T09:21:41;15.40;99.90
11047;DHT22;5576;50.008;10.596;2023-10-09T09:24:09;13.30;99.90
11047;DHT22;5576;50.008;10.596;2023-10-09T09:26:53;10.10;99.90
11047;DHT22;5576;50.008;10.596;2023-10-09T09:34:50;13.70;99.90
11047;DHT22;5576;50.008;10.596;2023-10-09T09:37:21;13.70;99.90
11047;DHT22;5576;50.008;10.596;2023-10-09T09:39:47;13.70;99.90
11047;DHT22;5576;50.008;10.596;2023-10-09T09:42:15;13.70;99.90
11047;DHT22;5576;50.008;10.596;2023-10-09T09:44:44;13.90;99.90
11047;DHT22;5576;50.008;10.596;2023-10-09T09:47:13;13.90;99.90
11047;DHT22;5576;50.008;10.596;2023-10-09T09:49:41;16.60;99.90
11047;DHT22;5576;50.008;10.596;2023-10-09T09:52:08;13.80;99.90
11047;DHT22;5576;50.008;10.596;2023-10-09T09:54:38;13.70;99.90
11047;DHT22;5576;50.008;10.596;2023-10-09T09:57:04;13.70;99.90
11047;DHT22;5576;50.008;10.596;2023-10-09T09:59:39;13.80;99.90
11047;DHT22;5576;50.008;10.596;2023-10-09T10:02:10;13.80;99.90
11047;DHT22;5576;50.008;10.596;2023-10-09T10:04:43;13.90;99.90
11047;DHT22;5576;50.008;10.596;2023-10-09T10:07:10;12.90;99.90
11047;DHT22;5576;50.008;10.596;2023-10-09T10:09:39;14.00;99.90
11047;DHT22;5576;50.008;10.596;2023-10-09T10:12:07;14.10;99.90
11047;DHT22;5576;50.008;10.596;2023-10-09T10:14:53;14.20;99.90
11047;DHT22;5576;50.008;10.596;2023-10-09T10:17:22;13.60;99.90
11047;DHT22;5576;50.008;10.596;2023-10-09T10:20:04;14.20;99.90
11047;DHT22;5576;50.008;10.596;2023-10-09T10:22:47;14.30;99.90
11047;DHT22;5576;50.008;10.596;2023-10-09T10:25:32;14.30;99.90
11047;DHT22;5576;50.008;10.596;2023-10-09T10:28:19;14.30;99.90
11047;DHT22;5576;50.008;10.596;2023-10-09T10:31:05;14.30;99.90
11047;DHT22;5576;50.008;10.596;2023-10-09T10:36:21;14.50;99.90
11047;DHT22;5576;50.008;10.596;2023-10-09T10:39:06;14.70;99.90
11047;DHT22;5576;50.008;10.596;2023-10-09T10:41:53;14.80;99.90
11047;DHT22;5576;50.008;10.596;2023-10-09T10:44:36;15.00;99.90
11047;DHT22;5576;50.008;10.596;2023-10-09T10:47:05;15.00;99.90
11047;DHT22;5576;50.008;10.596;2023-10-09T10:49:31;15.00;99.90
11047;DHT22;5576;50.008;10.596;2023-10-09T10:52:06;15.10;99.90
11047;DHT22;5576;50.008;10.596;2023-10-09T10:54:47;15.20;99.90
11047;DHT22;5576;50.008;10.596;2023-10-09T10:57:35;15.20;99.90
11047;DHT22;5576;50.008;10.596;2023-10-09T11:00:21;15.20;99.90
11047;DHT22;5576;50.008;10.596;2023-10-09T11:03:06;15.30;99.90
11047;DHT22;5576;50.008;10.596;2023-10-09T11:05:42;15.30;99.90
11047;DHT22;5576;50.008;10.596;2023-10-09T11:08:10;15.40;99.90
11047;DHT22;5576;50.008;10.596;2023-10-09T11:10:35;15.40;99.90
11047;DHT22;5576;50.008;10.596;2023-10-09T11:13:01;15.40;99.90
11047;DHT22;5576;50.008;10.596;2023-10-09T11:15:37;15.50;99.90
11047;DHT22;5576;50.008;10.596;2023-10-09T11:18:11;15.60;99.90
11047;DHT22;5576;50.008;10.596;2023-10-09T11:20:50;15.60;99.90
11047;DHT22;5576;50.008;10.596;2023-10-09T11:23:23;15.60;99.90
11047;DHT22;5576;50.008;10.596;2023-10-09T11:26:09;15.60;99.90
11047;DHT22;5576;50.008;10.596;2023-10-09T11:29:12;15.60;99.90
11047;DHT22;5576;50.008;10.596;2023-10-09T11:32:07;15.60;99.90
11047;DHT22;5576;50.008;10.596;2023-10-09T11:34:45;15.60;99.90
11047;DHT22;5576;50.008;10.596;2023-10-09T11:37:19;15.70;99.90
11047;DHT22;5576;50.008;10.596;2023-10-09T11:40:04;15.60;99.90
11047;DHT22;5576;50.008;10.596;2023-10-09T11:42:49;15.60;99.90
11047;DHT22;5576;50.008;10.596;2023-10-09T11:45:24;15.60;99.90
11047;DHT22;5576;50.008;10.596;2023-10-09T11:47:54;15.60;99.90
11047;DHT22;5576;50.008;10.596;2023-10-09T11:50:44;15.70;99.90
11047;DHT22;5576;50.008;10.596;2023-10-09T11:53:20;15.80;99.90
11047;DHT22;5576;50.008;10.596;2023-10-09T11:55:49;15.90;99.90
11047;DHT22;5576;50.008;10.596;2023-10-09T11:58:16;15.90;99.90
11047;DHT22;5576;50.008;10.596;2023-10-09T12:00:51;16.00;99.90
11047;DHT22;5576;50.008;10.596;2023-10-09T12:03:17;16.00;99.90
11047;DHT22;5576;50.008;10.596;2023-10-09T12:05:47;15.60;99.90
11047;DHT22;5576;50.008;10.596;2023-10-09T12:08:13;16.00;99.90
11047;DHT22;5576;50.008;10.596;2023-10-09T12:10:42;16.00;99.90
11047;DHT22;5576;50.008;10.596;2023-10-09T12:13:08;16.00;99.90
11047;DHT22;5576;50.008;10.596;2023-10-09T12:15:34;16.00;99.90
11047;DHT22;5576;50.008;10.596;2023-10-09T12:18:05;15.90;99.90
11047;DHT22;5576;50.008;10.596;2023-10-09T12:20:34;16.00;99.90
11047;DHT22;5576;50.008;10.596;2023-10-09T12:23:02;16.00;99.90
11047;DHT22;5576;50.008;10.596;2023-10-09T12:25:33;16.10;99.90
11047;DHT22;5576;50.008;10.596;2023-10-09T12:28:00;16.10;99.90
11047;DHT22;5576;50.008;10.596;2023-10-09T12:30:28;16.10;99.90
11047;DHT22;5576;50.008;10.596;2023-10-09T12:32:56;16.20;99.90
11047;DHT22;5576;50.008;10.596;2023-10-09T12:35:24;16.30;99.90
11047;DHT22;5576;50.008;10.596;2023-10-09T12:37:51;16.30;99.90
11047;DHT22;5576;50.008;10.596;2023-10-09T12:40:17;16.30;99.90
11047;DHT22;5576;50.008;10.596;2023-10-09T12:42:51;16.40;99.90
11047;DHT22;5576;50.008;10.596;2023-10-09T12:45:18;18.40;99.90
11047;DHT22;5576;50.008;10.596;2023-10-09T12:47:53;16.50;99.90
11047;DHT22;5576;50.008;10.596;2023-10-09T12:50:19;16.60;99.90
11047;DHT22;5576;50.008;10.596;2023-10-09T12:52:55;16.60;99.90
11047;DHT22;5576;50.008;10.596;2023-10-09T12:55:21;16.80;99.90
11047;DHT22;5576;50.008;10.596;2023-10-09T12:57:47;16.90;99.90
11047;DHT22;5576;50.008;10.596;2023-10-09T13:00:14;16.80;99.90
11047;DHT22;5576;50.008;10.596;2023-10-09T13:02:51;16.80;99.90
11047;DHT22;5576;50.008;10.596;2023-10-09T13:05:17;16.90;99.90
11047;DHT22;5576;50.008;10.596;2023-10-09T13:07:52;16.90;99.90
11047;DHT22;5576;50.008;10.596;2023-10-09T13:10:19;16.90;99.90
11047;DHT22;5576;50.008;10.596;2023-10-09T13:12:46;17.00;99.90
11047;DHT22;5576;50.008;10.596;2023-10-09T13:15:11;17.00;99.90
11047;DHT22;5576;50.008;10.596;2023-10-09T13:17:38;17.00;99.90
11047;DHT22;5576;50.008;10.596;2023-10-09T13:20:04;17.10;99.90
11047;DHT22;5576;50.008;10.596;2023-10-09T13:22:47;17.10;99.90
11047;DHT22;5576;50.008;10.596;2023-10-09T13:25:14;17.20;99.90
11047;DHT22;5576;50.008;10.596;2023-10-09T13:27:42;17.20;99.90
11047;DHT22;5576;50.008;10.596;2023-10-09T13:30:13;17.10;99.90
11047;DHT22;5576;50.008;10.596;2023-10-09T13:32:48;17.20;99.90
11047;DHT22;5576;50.008;10.596;2023-10-09T13:35:16;17.10;99.90
11047;DHT22;5576;50.008;10.596;2023-10-09T13:37:42;17.10;99.90
11047;DHT22;5576;50.008;10.596;2023-10-09T13:40:09;17.10;99.90
11047;DHT22;5576;50.008;10.596;2023-10-09T13:42:37;18.70;99.90
11047;DHT22;5576;50.008;10.596;2023-10-09T13:45:03;17.00;99.90
11047;DHT22;5576;50.008;10.596;2023-10-09T13:47:41;17.20;99.90
11047;DHT22;5576;50.008;10.596;2023-10-09T13:50:10;17.20;99.90
11047;DHT22;5576;50.008;10.596;2023-10-09T13:52:36;17.20;99.90
11047;DHT22;5576;50.008;10.596;2023-10-09T13:55:06;17.30;99.90
11047;DHT22;5576;50.008;10.596;2023-10-09T13:57:47;17.30;99.90
11047;DHT22;5576;50.008;10.596;2023-10-09T14:00:14;17.30;99.90
11047;DHT22;5576;50.008;10.596;2023-10-09T14:05:12;17.30;99.90
11047;DHT22;5576;50.008;10.596;2023-10-09T14:07:39;14.10;99.90
11047;DHT22;5576;50.008;10.596;2023-10-09T14:10:06;17.30;99.90
11047;DHT22;5576;50.008;10.596;2023-10-09T14:12:43;17.20;99.90
11047;DHT22;5576;50.008;10.596;2023-10-09T14:17:42;17.20;99.90
11047;DHT22;5576;50.008;10.596;2023-10-09T14:20:08;13.80;99.90
11047;DHT22;5576;50.008;10.596;2023-10-09T14:22:54;17.30;99.90
11047;DHT22;5576;50.008;10.596;2023-10-09T14:25:20;17.20;99.90
11047;DHT22;5576;50.008;10.596;2023-10-09T14:27:47;17.20;99.90
11047;DHT22;5576;50.008;10.596;2023-10-09T14:30:14;17.20;99.90
11047;DHT22;5576;50.008;10.596;2023-10-09T14:32:48;17.20;99.90
11047;DHT22;5576;50.008;10.596;2023-10-09T14:35:21;17.20;99.90
11047;DHT22;5576;50.008;10.596;2023-10-09T14:37:52;17.20;99.90
11047;DHT22;5576;50.008;10.596;2023-10-09T14:40:19;17.20;99.90
11047;DHT22;5576;50.008;10.596;2023-10-09T14:42:56;17.10;99.90
11047;DHT22;5576;50.008;10.596;2023-10-09T14:45:27;17.80;99.90
11047;DHT22;5576;50.008;10.596;2023-10-09T14:47:53;17.10;99.90
11047;DHT22;5576;50.008;10.596;2023-10-09T14:50:21;17.10;99.90
11047;DHT22;5576;50.008;10.596;2023-10-09T14:52:49;17.10;99.90
11047;DHT22;5576;50.008;10.596;2023-10-09T14:55:16;17.10;99.90
11047;DHT22;5576;50.008;10.596;2023-10-09T14:57:57;17.10;99.90
11047;DHT22;5576;50.008;10.596;2023-10-09T15:00:24;17.10;99.90
11047;DHT22;5576;50.008;10.596;2023-10-09T15:02:50;17.10;99.90
11047;DHT22;5576;50.008;10.596;2023-10-09T15:05:17;17.00;99.90
11047;DHT22;5576;50.008;10.596;2023-10-09T15:07:42;17.00;99.90
11047;DHT22;5576;50.008;10.596;2023-10-09T15:10:08;17.00;99.90
11047;DHT22;5576;50.008;10.596;2023-10-09T15:12:35;17.00;99.90
11047;DHT22;5576;50.008;10.596;2023-10-09T15:15:09;16.90;99.90
11047;DHT22;5576;50.008;10.596;2023-10-09T15:17:40;16.90;99.90
11047;DHT22;5576;50.008;10.596;2023-10-09T15:20:11;16.90;99.90
11047;DHT22;5576;50.008;10.596;2023-10-09T15:22:41;16.90;99.90
11047;DHT22;5576;50.008;10.596;2023-10-09T15:25:07;16.80;99.90
11047;DHT22;5576;50.008;10.596;2023-10-09T15:27:32;14.50;99.90
11047;DHT22;5576;50.008;10.596;2023-10-09T15:29:58;15.70;99.90
11047;DHT22;5576;50.008;10.596;2023-10-09T15:32:24;16.80;99.90
11047;DHT22;5576;50.008;10.596;2023-10-09T15:34:55;16.70;99.90
11047;DHT22;5576;50.008;10.596;2023-10-09T15:37:22;18.10;99.90
11047;DHT22;5576;50.008;10.596;2023-10-09T15:39:48;16.80;99.90
11047;DHT22;5576;50.008;10.596;2023-10-09T15:42:15;16.70;99.90
11047;DHT22;5576;50.008;10.596;2023-10-09T15:44:42;16.80;99.90
11047;DHT22;5576;50.008;10.596;2023-10-09T15:47:08;16.70;99.90
11047;DHT22;5576;50.008;10.596;2023-10-09T15:52:06;14.80;99.90
11047;DHT22;5576;50.008;10.596;2023-10-09T15:54:34;16.60;99.90
11047;DHT22;5576;50.008;10.596;2023-10-09T15:57:00;16.60;99.90
11047;DHT22;5576;50.008;10.596;2023-10-09T15:59:26;20.60;99.90
11047;DHT22;5576;50.008;10.596;2023-10-09T16:01:51;16.60;99.90
11047;DHT22;5576;50.008;10.596;2023-10-09T16:04:18;17.00;99.90
11047;DHT22;5576;50.008;10.596;2023-10-09T16:06:44;16.50;99.90
11047;DHT22;5576;50.008;10.596;2023-10-09T16:09:10;16.50;99.90
11047;DHT22;5576;50.008;10.596;2023-10-09T16:11:37;16.40;99.90
11047;DHT22;5576;50.008;10.596;2023-10-09T16:16:33;16.30;99.90
11047;DHT22;5576;50.008;10.596;2023-10-09T16:19:00;16.30;99.90
11047;DHT22;5576;50.008;10.596;2023-10-09T16:21:26;16.30;99.90
11047;DHT22;5576;50.008;10.596;2023-10-09T16:23:52;16.30;99.90
11047;DHT22;5576;50.008;10.596;2023-10-09T16:26:19;18.00;99.90
11047;DHT22;5576;50.008;10.596;2023-10-09T16:28:50;16.30;99.90
11047;DHT22;5576;50.008;10.596;2023-10-09T16:31:18;16.20;99.90
11047;DHT22;5576;50.008;10.596;2023-10-09T16:33:45;16.20;99.90
11047;DHT22;5576;50.008;10.596;2023-10-09T16:36:13;16.10;99.90